Time;durP1;ratioP1;P1;durP2;ratioP2;P2;SDS_P1;SDS_P2;PMS_P1;PMS_P2;Temp;Humidity;BMP_temperature;BMP_pressure;BME280_temperature;BME280_humidity;BME280_pressure;Samples;Min_cycle;Max_cycle;Signal;HPM_P1;HPM_P2
2023/07/26 00:00:55;;;;;;;;;49.25;41.25;;;;;-143.47;100.00;63865.75;2102559;28;46259;-51
2023/07/26 00:01:56;;;;;;;;;45.00;36.50;;;;;-143.47;100.00;63865.75;2096209;28;46591;-52
2023/07/26 00:02:56;;;;;;;;;41.00;33.75;;;;;-143.47;100.00;63865.75;2096984;28;46458;-51
2023/07/26 00:03:58;;;;;;;;;44.00;35.50;;;;;-143.47;100.00;63865.75;2095938;28;46104;-48
2023/07/26 00:04:58;;;;;;;;;30.00;28.20;;;;;-143.47;100.00;63865.75;2095765;28;46909;-48
2023/07/26 00:06:00;;;;;;;;;35.50;30.75;;;;;-143.47;100.00;63865.75;2097367;28;46742;-48
2023/07/26 00:07:00;;;;;;;;;28.40;28.40;;;;;-143.47;100.00;63865.75;2097033;28;46502;-49
2023/07/26 00:08:01;;;;;;;;;23.25;23.00;;;;;-143.47;100.00;63865.75;2096422;28;45849;-49
2023/07/26 00:09:02;;;;;;;;;23.25;23.25;;;;;-143.47;100.00;63865.75;2096842;28;46845;-52
2023/07/26 00:10:02;;;;;;;;;21.25;19.50;;;;;-143.47;100.00;63865.75;2094432;28;46301;-49
2023/07/26 00:11:03;;;;;;;;;23.00;23.00;;;;;-143.47;100.00;63865.75;2097064;28;46517;-50
2023/07/26 00:12:03;;;;;;;;;19.00;19.00;;;;;-143.47;100.00;63865.75;2094813;28;46210;-51
2023/07/26 00:13:04;;;;;;;;;15.00;15.00;;;;;-143.47;100.00;63865.75;2097070;28;46191;-52
2023/07/26 00:14:05;;;;;;;;;14.00;14.00;;;;;-143.47;100.00;63865.75;2097415;28;46384;-49
2023/07/26 00:15:05;;;;;;;;;17.00;15.50;;;;;-143.47;100.00;63865.75;2096039;28;46393;-50
2023/07/26 00:16:06;;;;;;;;;23.75;22.25;;;;;-143.47;100.00;63865.75;2096536;28;46755;-52
2023/07/26 00:17:06;;;;;;;;;20.25;18.00;;;;;-143.47;100.00;63865.75;2089645;28;46464;-52
2023/07/26 00:18:07;;;;;;;;;16.00;16.00;;;;;-143.47;100.00;63865.75;2089032;28;46419;-50
2023/07/26 00:19:07;;;;;;;;;26.75;25.25;;;;;-143.47;100.00;63865.75;2088755;28;46829;-48
2023/07/26 00:20:08;;;;;;;;;23.25;21.25;;;;;-143.47;100.00;63865.75;2094248;28;46233;-52
2023/07/26 00:21:08;;;;;;;;;23.25;21.50;;;;;-143.47;100.00;63865.75;2096127;28;46109;-50
2023/07/26 00:22:09;;;;;;;;;22.75;22.25;;;;;-143.47;100.00;63865.75;2096325;28;46088;-53
2023/07/26 00:23:09;;;;;;;;;19.50;15.25;;;;;-143.47;100.00;63865.75;2088326;28;46497;-53
2023/07/26 00:24:09;;;;;;;;;19.50;16.50;;;;;-143.47;100.00;63865.75;2096310;28;46332;-52
2023/07/26 00:25:10;;;;;;;;;22.50;21.75;;;;;-143.47;100.00;63865.75;2096342;28;46378;-52
2023/07/26 00:26:10;;;;;;;;;20.50;18.00;;;;;-143.47;100.00;63865.75;2096417;28;45569;-53
2023/07/26 00:27:12;;;;;;;;;17.50;17.25;;;;;-143.47;100.00;63865.75;2097807;28;46586;-53
2023/07/26 00:28:12;;;;;;;;;15.60;13.80;;;;;-143.47;100.00;63865.75;2096557;28;46506;-52
2023/07/26 00:29:13;;;;;;;;;19.25;18.25;;;;;-143.47;100.00;63865.75;2096530;28;45992;-53
2023/07/26 00:30:15;;;;;;;;;12.25;12.25;;;;;-143.47;100.00;63865.75;2097350;28;46628;-50
2023/07/26 00:31:15;;;;;;;;;15.00;12.80;;;;;-143.47;100.00;63865.75;2096363;28;46499;-52
2023/07/26 00:32:15;;;;;;;;;11.25;11.25;;;;;-143.47;100.00;63865.75;2097057;28;46493;-49
2023/07/26 00:33:16;;;;;;;;;10.25;10.25;;;;;-143.47;100.00;63865.75;2089475;28;46305;-49
2023/07/26 00:34:16;;;;;;;;;12.25;10.75;;;;;-143.47;100.00;63865.75;2091358;28;46351;-49
2023/07/26 00:35:24;;;;;;;;;12.00;11.00;;;;;-143.47;100.00;63865.75;2097295;28;46840;-52
2023/07/26 00:36:24;;;;;;;;;7.50;7.50;;;;;-143.47;100.00;63865.75;2097068;28;46877;-51
2023/07/26 00:37:25;;;;;;;;;10.50;9.75;;;;;-143.47;100.00;63865.75;2094203;28;46415;-53
2023/07/26 00:38:25;;;;;;;;;10.00;9.00;;;;;-143.47;100.00;63865.75;2088604;28;46580;-52
2023/07/26 00:39:25;;;;;;;;;10.75;10.75;;;;;-143.47;100.00;63865.75;2088300;28;46639;-53
2023/07/26 00:40:26;;;;;;;;;11.50;11.50;;;;;-143.47;100.00;63865.75;2088797;28;46327;-52
2023/07/26 00:41:27;;;;;;;;;10.25;8.00;;;;;-143.47;100.00;63865.75;2088704;28;46803;-50
2023/07/26 00:42:27;;;;;;;;;7.25;7.00;;;;;-143.47;100.00;63865.75;2088597;28;46562;-53
2023/07/26 00:43:27;;;;;;;;;10.33;10.33;;;;;-143.47;100.00;63865.75;2088025;28;46491;-52
2023/07/26 00:44:28;;;;;;;;;6.50;6.50;;;;;-143.47;100.00;63865.75;2094399;28;46660;-52
2023/07/26 00:45:29;;;;;;;;;9.50;8.00;;;;;-143.47;100.00;63865.75;2089552;28;46422;-52
2023/07/26 00:46:30;;;;;;;;;6.25;6.25;;;;;-143.47;100.00;63865.75;2104109;28;46437;-50
2023/07/26 00:47:30;;;;;;;;;9.25;8.75;;;;;-143.47;100.00;63865.75;2100170;27;46242;-52
2023/07/26 00:48:32;;;;;;;;;8.00;8.00;;;;;-143.47;100.00;63865.75;2097161;28;46784;-49
2023/07/26 00:49:32;;;;;;;;;8.40;8.00;;;;;-143.47;100.00;63865.75;2096981;28;47256;-50
2023/07/26 00:50:33;;;;;;;;;8.00;8.00;;;;;-143.47;100.00;63865.75;2096819;28;46443;-49
2023/07/26 00:51:35;;;;;;;;;10.50;9.75;;;;;-143.47;100.00;63865.75;2097202;28;46867;-51
2023/07/26 00:52:38;;;;;;;;;16.20;15.40;;;;;-143.47;100.00;63865.75;2096788;28;46438;-52
2023/07/26 00:53:39;;;;;;;;;24.80;22.80;;;;;-143.47;100.00;63865.75;2097392;28;46441;-48
2023/07/26 00:54:39;;;;;;;;;39.25;33.00;;;;;-143.47;100.00;63865.75;2095514;28;46393;-50
2023/07/26 00:55:43;;;;;;;;;26.25;26.25;;;;;-143.47;100.00;63865.75;2096766;28;46721;-52
2023/07/26 00:56:43;;;;;;;;;28.40;28.00;;;;;-143.47;100.00;63865.75;2096887;28;46494;-53
2023/07/26 00:57:46;;;;;;;;;25.00;25.00;;;;;-143.47;100.00;63865.75;2096854;28;46144;-49
2023/07/26 00:58:47;;;;;;;;;28.00;24.40;;;;;-143.47;100.00;63865.75;2093678;28;46406;-51
2023/07/26 00:59:49;;;;;;;;;20.20;17.60;;;;;-143.47;100.00;63865.75;2088794;28;46840;-52
2023/07/26 01:00:50;;;;;;;;;16.60;16.20;;;;;-143.47;100.00;63865.75;2095912;28;46395;-55
2023/07/26 01:01:50;;;;;;;;;15.20;13.00;;;;;-143.47;100.00;63865.75;2095136;28;46866;-54
2023/07/26 01:02:51;;;;;;;;;15.25;13.50;;;;;-143.47;100.00;63865.75;2096945;28;46112;-47
2023/07/26 01:03:51;;;;;;;;;10.25;10.25;;;;;-143.47;100.00;63865.75;2096523;28;46676;-50
2023/07/26 01:04:52;;;;;;;;;17.25;16.75;;;;;-143.47;100.00;63865.75;2096737;28;46623;-53
2023/07/26 01:06:14;;;;;;;;;13.00;12.40;;;;;-143.47;100.00;63865.75;2103433;28;46459;-53
2023/07/26 01:07:31;;;;;;;;;14.60;12.60;;;;;-143.47;100.00;63865.75;2100458;28;46333;-52
2023/07/26 01:08:53;;;;;;;;;9.20;9.20;;;;;-143.47;100.00;63865.75;2096687;28;46398;-51
2023/07/26 01:10:21;;;;;;;;;12.40;12.40;;;;;-143.47;100.00;63865.75;2094326;28;46379;-50
2023/07/26 01:11:30;;;;;;;;;10.20;10.00;;;;;-143.47;100.00;63865.75;2092662;28;46753;-50
2023/07/26 01:12:39;;;;;;;;;9.80;9.80;;;;;-143.47;100.00;63865.75;2091654;28;46483;-51
2023/07/26 01:13:45;;;;;;;;;9.40;8.40;;;;;-143.47;100.00;63865.75;2096441;28;46915;-53
2023/07/26 01:14:58;;;;;;;;;4.40;4.40;;;;;-143.47;100.00;63865.75;2096609;28;46486;-51
2023/07/26 01:15:59;;;;;;;;;4.40;4.40;;;;;-143.47;100.00;63865.75;2096083;28;46516;-50
2023/07/26 01:17:00;;;;;;;;;5.60;5.00;;;;;-143.47;100.00;63865.75;2096358;28;46481;-50
2023/07/26 01:18:13;;;;;;;;;9.20;7.00;;;;;-143.47;100.00;63865.75;2096908;28;47032;-50
2023/07/26 01:19:13;;;;;;;;;7.20;6.80;;;;;-143.47;100.00;63865.75;2094548;28;46561;-52
2023/07/26 01:20:13;;;;;;;;;7.75;7.50;;;;;-143.47;100.00;63865.75;2095599;28;46413;-52
2023/07/26 01:21:14;;;;;;;;;5.50;5.50;;;;;-143.47;100.00;63865.75;2090068;28;46829;-47
2023/07/26 01:22:14;;;;;;;;;6.00;6.00;;;;;-143.47;100.00;63865.75;2095804;28;46322;-50
2023/07/26 01:23:14;;;;;;;;;4.00;4.00;;;;;-143.47;100.00;63865.75;2095723;28;46229;-49
2023/07/26 01:24:15;;;;;;;;;4.00;4.00;;;;;-143.47;100.00;63865.75;2091218;28;46738;-47
2023/07/26 01:25:16;;;;;;;;;5.00;5.00;;;;;-143.47;100.00;63865.75;2096890;28;46155;-50
2023/07/26 01:26:16;;;;;;;;;3.00;3.00;;;;;-143.47;100.00;63865.75;2097245;28;46335;-47
2023/07/26 01:27:17;;;;;;;;;3.67;3.67;;;;;-143.47;100.00;63865.75;2095271;28;46507;-51
2023/07/26 01:28:17;;;;;;;;;3.33;2.67;;;;;-143.47;100.00;63865.75;2094605;27;46348;-48
2023/07/26 01:29:17;;;;;;;;;3.33;3.33;;;;;-143.47;100.00;63865.75;2095419;28;46308;-49
2023/07/26 01:30:18;;;;;;;;;4.25;4.25;;;;;-143.47;100.00;63865.75;2088451;28;46074;-52
2023/07/26 01:31:21;;;;;;;;;3.33;3.33;;;;;-143.47;100.00;63865.75;2095438;28;46809;-47
2023/07/26 01:32:24;;;;;;;;;5.40;2.60;;;;;-143.47;100.00;63865.75;2098248;28;46462;-51
2023/07/26 01:33:27;;;;;;;;;5.40;5.40;;;;;-143.47;100.00;63865.75;2089139;28;46681;-49
2023/07/26 01:34:27;;;;;;;;;3.80;3.80;;;;;-143.47;100.00;63865.75;2093694;28;46528;-49
2023/07/26 01:35:28;;;;;;;;;3.67;3.67;;;;;-143.47;100.00;63865.75;2105759;27;46440;-48
2023/07/26 01:36:29;;;;;;;;;4.75;3.75;;;;;-143.47;100.00;63865.75;2106529;27;46817;-48
2023/07/26 01:37:30;;;;;;;;;3.75;3.50;;;;;-143.47;100.00;63865.75;2092610;28;46600;-49
2023/07/26 01:38:31;;;;;;;;;3.33;3.33;;;;;-143.47;100.00;63865.75;2097004;28;46421;-49
2023/07/26 01:39:32;;;;;;;;;5.20;3.60;;;;;-143.47;100.00;63865.75;2094788;28;46674;-49
2023/07/26 01:40:32;;;;;;;;;4.50;4.50;;;;;-143.47;100.00;63865.75;2093828;28;46709;-48
2023/07/26 01:41:33;;;;;;;;;4.25;4.25;;;;;-143.47;100.00;63865.75;2089244;27;46635;-51
2023/07/26 01:42:34;;;;;;;;;3.00;3.00;;;;;-143.47;100.00;63865.75;2093891;28;46361;-50
2023/07/26 01:43:37;;;;;;;;;6.00;5.00;;;;;-143.47;100.00;63865.75;2094542;28;46545;-48
2023/07/26 01:44:37;;;;;;;;;3.60;3.40;;;;;-143.47;100.00;63865.75;2097239;27;46866;-49
2023/07/26 01:45:38;;;;;;;;;3.75;3.75;;;;;-143.47;100.00;63865.75;2097712;28;46605;-51
2023/07/26 01:46:38;;;;;;;;;3.00;3.00;;;;;-143.47;100.00;63865.75;2096841;28;46839;-51
2023/07/26 01:47:38;;;;;;;;;4.00;4.00;;;;;-143.47;100.00;63865.75;2101947;28;46838;-52
2023/07/26 01:48:39;;;;;;;;;0.75;0.50;;;;;-143.47;100.00;63865.75;2105104;27;46629;-51
2023/07/26 01:49:39;;;;;;;;;4.00;3.00;;;;;-143.47;100.00;63865.75;2095521;28;46643;-51
2023/07/26 01:50:40;;;;;;;;;3.00;2.00;;;;;-143.47;100.00;63865.75;2098037;28;46679;-53
2023/07/26 01:51:40;;;;;;;;;2.00;2.00;;;;;-143.47;100.00;63865.75;2097410;28;46401;-52
2023/07/26 01:52:40;;;;;;;;;3.00;3.00;;;;;-143.47;100.00;63865.75;2098321;27;46449;-51
2023/07/26 01:53:41;;;;;;;;;3.00;3.00;;;;;-143.47;100.00;63865.75;2098291;28;46786;-49
2023/07/26 01:54:41;;;;;;;;;17.00;15.00;;;;;-143.47;100.00;63865.75;2096737;28;46338;-52
2023/07/26 01:55:42;;;;;;;;;47.50;40.75;;;;;-143.47;100.00;63865.75;2098273;28;45594;-52
2023/07/26 01:56:42;;;;;;;;;47.50;39.50;;;;;-143.47;100.00;63865.75;2098789;28;46880;-51
2023/07/26 01:57:42;;;;;;;;;49.50;41.25;;;;;-143.47;100.00;63865.75;2095811;27;46569;-52
2023/07/26 01:58:43;;;;;;;;;38.50;34.25;;;;;-143.47;100.00;63865.75;2095910;28;46207;-51
2023/07/26 01:59:43;;;;;;;;;41.75;33.25;;;;;-143.47;100.00;63865.75;2089651;28;46640;-49
2023/07/26 02:00:43;;;;;;;;;60.25;47.00;;;;;-143.47;100.00;63865.75;2097159;27;46612;-51
2023/07/26 02:01:44;;;;;;;;;61.50;48.75;;;;;-143.47;100.00;63865.75;2098393;28;46255;-52
2023/07/26 02:02:44;;;;;;;;;60.50;48.50;;;;;-143.47;100.00;63865.75;2096242;28;46634;-50
2023/07/26 02:03:44;;;;;;;;;75.00;69.25;;;;;-143.47;100.00;63865.75;2100645;28;46506;-53
2023/07/26 02:04:45;;;;;;;;;66.00;53.75;;;;;-143.47;100.00;63865.75;2103058;27;46196;-51
2023/07/26 02:05:46;;;;;;;;;67.75;54.25;;;;;-143.47;100.00;63865.75;2096390;28;46629;-50
2023/07/26 02:06:47;;;;;;;;;73.00;63.50;;;;;-143.47;100.00;63865.75;2096545;28;46674;-49
2023/07/26 02:07:47;;;;;;;;;37.25;33.50;;;;;-143.47;100.00;63865.75;2094869;28;46791;-50
2023/07/26 02:08:47;;;;;;;;;56.25;44.75;;;;;-143.47;100.00;63865.75;2096582;28;46903;-49
2023/07/26 02:09:48;;;;;;;;;62.25;49.00;;;;;-143.47;100.00;63865.75;2094776;28;46639;-48
2023/07/26 02:10:48;;;;;;;;;58.75;47.50;;;;;-143.47;100.00;63865.75;2087022;28;46227;-48
2023/07/26 02:11:49;;;;;;;;;52.00;41.25;;;;;-143.47;100.00;63865.75;2086875;28;47041;-50
2023/07/26 02:12:49;;;;;;;;;47.50;39.00;;;;;-143.47;100.00;63865.75;2096595;28;46305;-52
2023/07/26 02:13:51;;;;;;;;;47.60;39.00;;;;;-143.47;100.00;63865.75;2101811;28;46248;-49
2023/07/26 02:14:51;;;;;;;;;48.00;39.75;;;;;-143.47;100.00;63865.75;2099532;27;46667;-49
2023/07/26 02:15:51;;;;;;;;;49.75;41.00;;;;;-143.47;100.00;63865.75;2096275;28;46383;-50
2023/07/26 02:16:52;;;;;;;;;39.50;32.75;;;;;-143.47;100.00;63865.75;2096101;28;46133;-53
2023/07/26 02:17:53;;;;;;;;;39.50;33.00;;;;;-143.47;100.00;63865.75;2096483;28;46658;-52
2023/07/26 02:18:53;;;;;;;;;30.20;28.20;;;;;-143.47;100.00;63865.75;2096674;28;46891;-51
2023/07/26 02:19:54;;;;;;;;;34.50;31.50;;;;;-143.47;100.00;63865.75;2096656;28;46567;-52
2023/07/26 02:20:54;;;;;;;;;31.75;30.75;;;;;-143.47;100.00;63865.75;2096547;28;46173;-50
2023/07/26 02:21:54;;;;;;;;;31.75;30.00;;;;;-143.47;100.00;63865.75;2096349;28;46412;-50
2023/07/26 02:22:56;;;;;;;;;30.75;28.25;;;;;-143.47;100.00;63865.75;2096667;28;46129;-50
2023/07/26 02:23:56;;;;;;;;;27.60;25.80;;;;;-143.47;100.00;63865.75;2095159;28;46905;-50
2023/07/26 02:24:56;;;;;;;;;22.50;19.75;;;;;-143.47;100.00;63865.75;2095207;28;46919;-50
2023/07/26 02:25:57;;;;;;;;;23.00;22.00;;;;;-143.47;100.00;63865.75;2094457;28;46907;-48
2023/07/26 02:26:57;;;;;;;;;27.75;23.50;;;;;-143.47;100.00;63865.75;2104865;27;46298;-50
2023/07/26 02:27:57;;;;;;;;;18.75;17.75;;;;;-143.47;100.00;63865.75;2088948;27;46869;-49
2023/07/26 02:28:58;;;;;;;;;18.50;18.50;;;;;-143.47;100.00;63865.75;2090891;28;46561;-49
2023/07/26 02:29:58;;;;;;;;;10.50;10.00;;;;;-143.47;100.00;63865.75;2096670;28;46635;-50
2023/07/26 02:30:58;;;;;;;;;11.50;10.25;;;;;-143.47;100.00;63865.75;2095969;28;46490;-50
2023/07/26 02:31:58;;;;;;;;;12.00;12.00;;;;;-143.47;100.00;63865.75;2096333;28;46462;-54
2023/07/26 02:32:59;;;;;;;;;12.00;12.00;;;;;-143.47;100.00;63865.75;2096704;28;45879;-53
2023/07/26 02:33:59;;;;;;;;;10.75;10.75;;;;;-143.47;100.00;63865.75;2096177;28;46330;-53
2023/07/26 02:34:59;;;;;;;;;9.75;9.25;;;;;-143.47;100.00;63865.75;2096797;28;46812;-52
2023/07/26 02:36:00;;;;;;;;;11.50;10.50;;;;;-143.47;100.00;63865.75;2093620;28;46252;-53
2023/07/26 02:37:00;;;;;;;;;12.75;12.75;;;;;-143.47;100.00;63865.75;2096259;28;46251;-53
2023/07/26 02:38:00;;;;;;;;;10.00;9.25;;;;;-143.47;100.00;63865.75;2090606;28;46329;-54
2023/07/26 02:39:01;;;;;;;;;10.00;7.00;;;;;-143.47;100.00;63865.75;2093821;28;46042;-51
2023/07/26 02:40:01;;;;;;;;;7.25;7.25;;;;;-143.47;100.00;63865.75;2096717;28;46772;-50
2023/07/26 02:41:02;;;;;;;;;9.25;9.00;;;;;-143.47;100.00;63865.75;2096430;28;46113;-48
2023/07/26 02:42:02;;;;;;;;;8.75;8.75;;;;;-143.47;100.00;63865.75;2096915;28;46187;-50
2023/07/26 02:43:02;;;;;;;;;7.25;7.25;;;;;-143.47;100.00;63865.75;2096353;28;46198;-51
2023/07/26 02:44:03;;;;;;;;;8.00;6.33;;;;;-143.47;100.00;63865.75;2095062;28;46238;-52
2023/07/26 02:45:03;;;;;;;;;8.00;8.00;;;;;-143.47;100.00;63865.75;2093975;28;46476;-56
2023/07/26 02:46:04;;;;;;;;;6.25;5.00;;;;;-143.47;100.00;63865.75;2099028;28;45078;-50
2023/07/26 02:47:04;;;;;;;;;4.00;4.00;;;;;-143.47;100.00;63865.75;2098632;28;45469;-53
2023/07/26 02:48:05;;;;;;;;;7.50;7.50;;;;;-143.47;100.00;63865.75;2096387;28;46179;-49
2023/07/26 02:49:05;;;;;;;;;6.50;5.75;;;;;-143.47;100.00;63865.75;2095855;28;46310;-49
2023/07/26 02:50:06;;;;;;;;;6.00;6.00;;;;;-143.47;100.00;63865.75;2084633;28;46778;-50
2023/07/26 02:51:06;;;;;;;;;4.00;4.00;;;;;-143.47;100.00;63865.75;2086810;28;46780;-50
2023/07/26 02:52:07;;;;;;;;;6.00;5.00;;;;;-143.47;100.00;63865.75;2086949;28;46520;-49
2023/07/26 02:53:07;;;;;;;;;5.33;4.67;;;;;-143.47;100.00;63865.75;2094416;28;46419;-50
2023/07/26 02:54:07;;;;;;;;;4.33;4.33;;;;;-143.47;100.00;63865.75;2095676;28;46479;-49
2023/07/26 02:55:08;;;;;;;;;2.33;2.33;;;;;-143.47;100.00;63865.75;2096426;28;46524;-48
2023/07/26 02:56:08;;;;;;;;;4.00;4.00;;;;;-143.47;100.00;63865.75;2096224;28;46871;-52
2023/07/26 02:57:08;;;;;;;;;4.67;4.67;;;;;-143.47;100.00;63865.75;2092077;28;46563;-51
2023/07/26 02:58:09;;;;;;;;;4.00;4.00;;;;;-143.47;100.00;63865.75;2091232;28;46245;-50
2023/07/26 02:59:09;;;;;;;;;4.67;4.00;;;;;-143.47;100.00;63865.75;2096010;28;46237;-49
2023/07/26 03:00:10;;;;;;;;;4.00;4.00;;;;;-143.47;100.00;63865.75;2094761;28;46539;-50
2023/07/26 03:01:11;;;;;;;;;4.67;4.00;;;;;-143.47;100.00;63865.75;2095421;28;46784;-52
2023/07/26 03:02:11;;;;;;;;;2.33;2.33;;;;;-143.47;100.00;63865.75;2096352;28;46734;-48
2023/07/26 03:03:11;;;;;;;;;3.25;3.25;;;;;-143.47;100.00;63865.75;2096275;28;46647;-53
2023/07/26 03:04:12;;;;;;;;;4.00;3.00;;;;;-143.47;100.00;63865.75;2102146;28;46643;-51
2023/07/26 03:05:12;;;;;;;;;5.00;5.00;;;;;-143.47;100.00;63865.75;2100285;27;46431;-53
2023/07/26 03:06:12;;;;;;;;;3.75;3.00;;;;;-143.47;100.00;63865.75;2101648;27;46987;-51
2023/07/26 03:07:13;;;;;;;;;3.25;3.25;;;;;-143.47;100.00;63865.75;2096863;28;46154;-53
2023/07/26 03:08:13;;;;;;;;;3.00;3.00;;;;;-143.47;100.00;63865.75;2096431;28;46755;-47
2023/07/26 03:09:13;;;;;;;;;3.00;3.00;;;;;-143.47;100.00;63865.75;2089178;28;45631;-49
2023/07/26 03:10:14;;;;;;;;;5.00;4.50;;;;;-143.47;100.00;63865.75;2096012;28;46218;-48
2023/07/26 03:11:14;;;;;;;;;4.25;4.25;;;;;-143.47;100.00;63865.75;2099032;28;46365;-47
2023/07/26 03:12:14;;;;;;;;;2.75;2.75;;;;;-143.47;100.00;63865.75;2097365;28;46537;-48
2023/07/26 03:13:15;;;;;;;;;3.00;3.00;;;;;-143.47;100.00;63865.75;2097822;28;46210;-47
2023/07/26 03:14:15;;;;;;;;;2.50;2.50;;;;;-143.47;100.00;63865.75;2097944;28;46395;-47
2023/07/26 03:15:15;;;;;;;;;4.75;4.75;;;;;-143.47;100.00;63865.75;2096280;28;46164;-48
2023/07/26 03:16:16;;;;;;;;;3.00;3.00;;;;;-143.47;100.00;63865.75;2091733;28;46390;-48
2023/07/26 03:17:17;;;;;;;;;2.40;2.40;;;;;-143.47;100.00;63865.75;2096290;28;47003;-51
2023/07/26 03:18:17;;;;;;;;;4.00;3.00;;;;;-143.47;100.00;63865.75;2097047;28;46868;-50
2023/07/26 03:19:17;;;;;;;;;3.75;3.75;;;;;-143.47;100.00;63865.75;2098454;28;46366;-51
2023/07/26 03:20:18;;;;;;;;;3.00;3.00;;;;;-143.47;100.00;63865.75;2098538;28;46390;-53
2023/07/26 03:21:18;;;;;;;;;3.00;2.75;;;;;-143.47;100.00;63865.75;2096838;28;46168;-49
2023/07/26 03:22:18;;;;;;;;;5.75;4.75;;;;;-143.47;100.00;63865.75;2088777;28;46401;-50
2023/07/26 03:23:19;;;;;;;;;3.25;3.25;;;;;-143.47;100.00;63865.75;2097281;28;46401;-50
2023/07/26 03:24:19;;;;;;;;;2.50;2.50;;;;;-143.47;100.00;63865.75;2091349;28;45882;-50
2023/07/26 03:25:19;;;;;;;;;2.00;2.00;;;;;-143.47;100.00;63865.75;2098158;28;46695;-51
2023/07/26 03:26:20;;;;;;;;;3.00;3.00;;;;;-143.47;100.00;63865.75;2097803;28;46611;-49
2023/07/26 03:27:20;;;;;;;;;3.50;3.50;;;;;-143.47;100.00;63865.75;2096259;28;46412;-52
2023/07/26 03:28:20;;;;;;;;;3.50;3.50;;;;;-143.47;100.00;63865.75;2091388;28;46353;-52
2023/07/26 03:29:21;;;;;;;;;2.75;2.75;;;;;-143.47;100.00;63865.75;2100037;28;45889;-53
2023/07/26 03:30:21;;;;;;;;;2.25;2.25;;;;;-143.47;100.00;63865.75;2101908;27;45900;-51
2023/07/26 03:31:21;;;;;;;;;2.00;2.00;;;;;-143.47;100.00;63865.75;2103037;28;46348;-51
2023/07/26 03:32:22;;;;;;;;;3.00;3.00;;;;;-143.47;100.00;63865.75;2097042;28;46258;-48
2023/07/26 03:33:22;;;;;;;;;1.75;1.75;;;;;-143.47;100.00;63865.75;2088425;28;46426;-48
2023/07/26 03:34:22;;;;;;;;;3.75;3.75;;;;;-143.47;100.00;63865.75;2096802;28;46410;-50
2023/07/26 03:35:23;;;;;;;;;3.50;2.75;;;;;-143.47;100.00;63865.75;2103430;28;46558;-50
2023/07/26 03:36:23;;;;;;;;;3.25;3.00;;;;;-143.47;100.00;63865.75;2105547;28;46883;-54
2023/07/26 03:37:23;;;;;;;;;2.75;2.75;;;;;-143.47;100.00;63865.75;2096072;28;46188;-49
2023/07/26 03:38:24;;;;;;;;;3.00;2.00;;;;;-143.47;100.00;63865.75;2097810;28;46516;-48
2023/07/26 03:39:24;;;;;;;;;3.50;3.50;;;;;-143.47;100.00;63865.75;2102971;28;46318;-50
2023/07/26 03:40:24;;;;;;;;;1.50;1.50;;;;;-143.47;100.00;63865.75;2096008;27;46380;-47
2023/07/26 03:41:25;;;;;;;;;5.75;3.50;;;;;-143.47;100.00;63865.75;2105487;28;45583;-50
2023/07/26 03:42:25;;;;;;;;;4.00;4.00;;;;;-143.47;100.00;63865.75;2084582;28;46540;-52
2023/07/26 03:43:26;;;;;;;;;3.33;3.33;;;;;-143.47;100.00;63865.75;2093950;28;45625;-50
2023/07/26 03:44:26;;;;;;;;;3.75;2.00;;;;;-143.47;100.00;63865.75;2096432;28;46385;-52
2023/07/26 03:45:27;;;;;;;;;3.50;3.50;;;;;-143.47;100.00;63865.75;2092847;28;45511;-53
2023/07/26 03:46:27;;;;;;;;;2.00;2.00;;;;;-143.47;100.00;63865.75;2095124;28;46531;-52
2023/07/26 03:47:27;;;;;;;;;3.75;3.75;;;;;-143.47;100.00;63865.75;2096643;28;46220;-49
2023/07/26 03:48:28;;;;;;;;;3.33;2.00;;;;;-143.47;100.00;63865.75;2093067;28;46501;-51
2023/07/26 03:49:28;;;;;;;;;2.00;2.00;;;;;-143.47;100.00;63865.75;2099697;28;46364;-49
2023/07/26 03:50:29;;;;;;;;;2.50;2.50;;;;;-143.47;100.00;63865.75;2095420;28;46218;-50
2023/07/26 03:51:29;;;;;;;;;3.00;2.50;;;;;-143.47;100.00;63865.75;2099360;28;46333;-50
2023/07/26 03:52:30;;;;;;;;;3.33;2.33;;;;;-143.47;100.00;63865.75;2097895;28;47007;-51
2023/07/26 03:53:30;;;;;;;;;3.67;3.67;;;;;-143.47;100.00;63865.75;2097506;28;47043;-54
2023/07/26 03:54:30;;;;;;;;;3.00;3.00;;;;;-143.47;100.00;63865.75;2097535;27;47023;-52
2023/07/26 03:55:30;;;;;;;;;3.00;3.00;;;;;-143.47;100.00;63865.75;2096219;28;46769;-52
2023/07/26 03:56:31;;;;;;;;;3.33;3.33;;;;;-143.47;100.00;63865.75;2093253;28;45694;-52
2023/07/26 03:57:31;;;;;;;;;3.00;3.00;;;;;-143.47;100.00;63865.75;2119411;27;47002;-49
2023/07/26 03:58:32;;;;;;;;;2.00;2.00;;;;;-143.47;100.00;63865.75;2109732;27;46297;-51
2023/07/26 03:59:32;;;;;;;;;4.67;4.33;;;;;-143.47;100.00;63865.75;2097457;28;46424;-51
2023/07/26 04:00:32;;;;;;;;;2.33;2.33;;;;;-143.47;100.00;63865.75;2100145;28;46338;-54
2023/07/26 04:01:33;;;;;;;;;3.00;3.00;;;;;-143.47;100.00;63865.75;2094273;28;46739;-50
2023/07/26 04:02:33;;;;;;;;;4.00;2.00;;;;;-143.47;100.00;63865.75;2097849;27;46665;-53
2023/07/26 04:03:33;;;;;;;;;0.00;0.00;;;;;-143.47;100.00;63865.75;2096038;28;46615;-53
2023/07/26 04:04:35;;;;;;;;;2.67;2.67;;;;;-143.47;100.00;63865.75;2089356;28;46519;-52
2023/07/26 04:05:35;;;;;;;;;3.25;3.25;;;;;-143.47;100.00;63865.75;2096652;28;46459;-48
2023/07/26 04:06:35;;;;;;;;;2.33;2.33;;;;;-143.47;100.00;63865.75;2096117;28;46260;-50
2023/07/26 04:07:37;;;;;;;;;2.67;2.67;;;;;-143.47;100.00;63865.75;2097416;28;46268;-48
2023/07/26 04:08:39;;;;;;;;;3.00;3.00;;;;;-143.47;100.00;63865.75;2096973;28;46616;-49
2023/07/26 04:09:40;;;;;;;;;3.00;3.00;;;;;-143.47;100.00;63865.75;2101560;28;46785;-50
2023/07/26 04:10:40;;;;;;;;;2.00;2.00;;;;;-143.47;100.00;63865.75;2097465;28;46649;-49
2023/07/26 04:11:40;;;;;;;;;4.75;4.75;;;;;-143.47;100.00;63865.75;2096821;28;46423;-52
2023/07/26 04:12:41;;;;;;;;;4.25;3.00;;;;;-143.47;100.00;63865.75;2097239;28;46322;-50
2023/07/26 04:13:41;;;;;;;;;2.00;2.00;;;;;-143.47;100.00;63865.75;2103218;28;45878;-52
2023/07/26 04:14:41;;;;;;;;;3.33;3.33;;;;;-143.47;100.00;63865.75;2097425;28;45937;-52
2023/07/26 04:15:41;;;;;;;;;4.00;2.75;;;;;-143.47;100.00;63865.75;2097290;28;46637;-51
2023/07/26 04:16:42;;;;;;;;;3.00;3.00;;;;;-143.47;100.00;63865.75;2097709;28;46195;-49
2023/07/26 04:17:42;;;;;;;;;4.67;4.67;;;;;-143.47;100.00;63865.75;2092885;28;46390;-49
2023/07/26 04:18:43;;;;;;;;;2.33;1.33;;;;;-143.47;100.00;63865.75;2102673;27;45728;-50
2023/07/26 04:19:43;;;;;;;;;2.00;2.00;;;;;-143.47;100.00;63865.75;2100321;28;46158;-49
2023/07/26 04:20:44;;;;;;;;;3.00;2.75;;;;;-143.47;100.00;63865.75;2100420;27;46820;-52
2023/07/26 04:21:44;;;;;;;;;3.67;3.67;;;;;-143.47;100.00;63865.75;2103367;28;46728;-48
2023/07/26 04:22:44;;;;;;;;;1.00;1.00;;;;;-143.47;100.00;63865.75;2097365;28;46907;-50
2023/07/26 04:23:46;;;;;;;;;2.25;2.25;;;;;-143.47;100.00;63865.75;2097065;28;46665;-48
2023/07/26 04:24:46;;;;;;;;;2.00;2.00;;;;;-143.47;100.00;63865.75;2101207;28;46571;-51
2023/07/26 04:25:50;;;;;;;;;5.00;4.00;;;;;-143.47;100.00;63865.75;2097983;27;45976;-49
2023/07/26 04:26:52;;;;;;;;;3.25;3.25;;;;;-143.47;100.00;63865.75;2102579;28;47189;-50
2023/07/26 04:27:52;;;;;;;;;2.00;1.50;;;;;-143.47;100.00;63865.75;2098607;28;46391;-47
2023/07/26 04:28:53;;;;;;;;;3.33;3.33;;;;;-143.47;100.00;63865.75;2098491;28;46596;-50
2023/07/26 04:29:53;;;;;;;;;4.00;4.00;;;;;-143.47;100.00;63865.75;2101775;28;46933;-50
2023/07/26 04:30:54;;;;;;;;;3.00;3.00;;;;;-143.47;100.00;63865.75;2098492;28;46679;-49
2023/07/26 04:31:54;;;;;;;;;4.40;3.40;;;;;-143.47;100.00;63865.75;2101024;27;46793;-51
2023/07/26 04:32:55;;;;;;;;;2.00;2.00;;;;;-143.47;100.00;63865.75;2097453;28;46506;-52
2023/07/26 04:33:55;;;;;;;;;3.00;3.00;;;;;-143.47;100.00;63865.75;2097130;28;46306;-50
2023/07/26 04:34:55;;;;;;;;;3.25;3.25;;;;;-143.47;100.00;63865.75;2102876;28;46410;-51
2023/07/26 04:35:57;;;;;;;;;5.00;5.00;;;;;-143.47;100.00;63865.75;2099258;28;46290;-52